If you wish to contribute or participate in the discussions about articles you are invited to join SKYbrary as a registered user

 Actions

Asuncion/Silvio Pettirossi International Airport

From SKYbrary Wiki

SGAS
Airport
ICAO: SGAS – IATA: ASU
Summary
Name Asuncion/Silvio Pettirossi International Airport
Region South America and Caribbean
Territory Paraguay PY.gif
Location Luque, Central
Serving Asuncion
Elevation 89.002 m
292 ft
292 ft89.002 m
Type medium airport
Coordinates -25° 14' 23.46", -57° 31' 8.8788"
Runways
Designator Length Width Surface ROPS
2/20 3353 m11,000.656 ft 46 m150.919 ft ASP yes/yes
METAR
Observation SGAS 120200Z 18007KT CAVOK 26/15 Q1009
Station Asuncion / Aeropuerto
Date/Time 12 December 2017 02:00:00
Wind direction 180°
Wind speed 07 kts
Lowest cloud amount clouds and visibility OK
Temperature 26°C
Dew point 15°C
Humidity 50%
QNH 1009 hPa
Weather condition n/a

Maps

Terrain

Loading map...

Airport Layout

Loading map...


Accidents & Serious Incidents at or in vicinity of SGAS

None on SKYbrary